| time (UTC) | temp C | wind direction | speed KPH | gust KPH | rain 1hr cm | rain 24hr cm | rain mn cm | humidity % | barometer mb |
| 20260506203437 | 11 | 157 | 1.6 | 9.7 | 0.25 | 0.79 | 0.61 | 94 | 1009.5 |
| 20260506202933 | 11 | 181 | 0.0 | 6.4 | 0.25 | 0.76 | 0.61 | 94 | 1009.5 |
| 20260506202432 | 11 | 139 | 0.0 | 6.4 | 0.23 | 0.71 | 0.61 | 94 | 1009.5 |
| 20260506202337 | 11 | 190 | 0.0 | 1.6 | 0.23 | 0.71 | 0.61 | 94 | 1009.5 |
| 20260506201429 | 11 | 193 | 0.0 | 1.6 | 0.20 | 0.69 | 0.61 | 94 | 1009.5 |
| 20260506200930 | 11 | 172 | 0.0 | 8.0 | 0.20 | 0.66 | 0.61 | 93 | 1009.4 |
| 20260506200430 | 11 | 184 | 0.0 | 8.0 | 0.15 | 0.61 | 0.61 | 93 | 1009.4 |
| 20260506195933 | 11 | 212 | 0.0 | 6.4 | 0.15 | 0.61 | 0.43 | 94 | 1009.4 |
| 20260506195428 | 11 | 217 | 0.0 | 6.4 | 0.13 | 0.56 | 0.43 | 94 | 1009.4 |
| 20260506195338 | 11 | 186 | 0.0 | 4.8 | 0.13 | 0.53 | 0.43 | 93 | 1009.3 |
| 20260506194426 | 11 | 190 | 0.0 | 4.8 | 0.13 | 0.53 | 0.43 | 93 | 1009.2 |
| 20260506193924 | 11 | 167 | 0.0 | 6.4 | 0.13 | 0.51 | 0.43 | 93 | 1009.2 |
| 20260506193422 | 11 | 181 | 0.0 | 6.4 | 0.13 | 0.51 | 0.43 | 93 | 1009.0 |
| 20260506192918 | 11 | 192 | 0.0 | 8.0 | 0.10 | 0.51 | 0.43 | 93 | 1009.0 |
| 20260506192853 | 11 | 192 | 0.0 | 8.0 | 0.10 | 0.51 | 0.43 | 93 | 1008.9 |
| 20260506191928 | 11 | 188 | 0.0 | 1.6 | 0.08 | 0.48 | 0.43 | 93 | 1008.8 |
| 20260506191421 | 11 | 152 | 0.0 | 1.6 | 0.10 | 0.48 | 0.43 | 93 | 1008.7 |
| 20260506190921 | 12 | 148 | 0.0 | 1.6 | 0.08 | 0.46 | 0.43 | 93 | 1008.6 |
| 20260506190420 | 12 | 146 | 0.0 | 9.7 | 0.08 | 0.46 | 0.43 | 93 | 1008.6 |
| 20260506185921 | 12 | 146 | 0.0 | 9.7 | 0.05 | 0.43 | 0.38 | 93 | 1008.5 |
| 20260506185417 | 12 | 329 | 0.0 | 4.8 | 0.05 | 0.43 | 0.38 | 93 | 1008.5 |
| 20260506184918 | 12 | 350 | 0.0 | 4.8 | 0.05 | 0.43 | 0.38 | 92 | 1008.4 |
| 20260506184420 | 12 | 169 | 0.0 | 4.8 | 0.05 | 0.43 | 0.38 | 92 | 1008.3 |
| 20260506183912 | 12 | 155 | 0.0 | 3.2 | 0.03 | 0.41 | 0.38 | 92 | 1008.2 |
| 20260506183411 | 12 | 171 | 0.0 | 3.2 | 0.03 | 0.41 | 0.38 | 92 | 1008.1 |
| 20260506182908 | 12 | 241 | 0.0 | 6.4 | 0.03 | 0.41 | 0.38 | 92 | 1008.1 |
| 20260506182745 | 12 | 173 | 0.0 | 6.4 | 0.03 | 0.41 | 0.38 | 92 | 1008.0 |
| 20260506181905 | 12 | 175 | 0.0 | 4.8 | 0.03 | 0.41 | 0.38 | 92 | 1008.0 |
| 20260506181820 | 12 | 196 | 0.0 | 1.6 | 0.00 | 0.41 | 0.38 | 92 | 1007.9 |
| 20260506180904 | 12 | 201 | 0.0 | 1.6 | 0.00 | 0.41 | 0.38 | 92 | 1008.0 |
| 20260506180403 | 12 | 201 | 0.0 | 6.4 | 0.00 | 0.41 | 0.38 | 91 | 1007.9 |
| 20260506175912 | 12 | 161 | 0.0 | 6.4 | 0.00 | 0.41 | 0.38 | 92 | 1007.9 |
| 20260506175410 | 12 | 186 | 0.0 | 6.4 | 0.00 | 0.41 | 0.38 | 91 | 1007.9 |
| 20260506174905 | 12 | 188 | 0.0 | 6.4 | 0.00 | 0.43 | 0.38 | 91 | 1007.8 |
| 20260506174415 | 12 | 190 | 0.0 | 1.6 | 0.00 | 0.43 | 0.38 | 92 | 1007.7 |
| 20260506173902 | 12 | 190 | 0.0 | 1.6 | 0.00 | 0.43 | 0.38 | 92 | 1007.7 |
| 20260506173826 | 12 | 189 | 0.0 | 0.0 | 0.00 | 0.46 | 0.38 | 92 | 1007.7 |
| 20260506172902 | 12 | 190 | 0.0 | 1.6 | 0.03 | 0.48 | 0.38 | 92 | 1007.7 |
| 20260506172401 | 12 | 200 | 0.0 | 1.6 | 0.03 | 0.48 | 0.38 | 92 | 1007.7 |
| 20260506172256 | 12 | 201 | 0.0 | 1.6 | 0.03 | 0.48 | 0.38 | 93 | 1007.7 |
| 20260506171413 | 12 | 229 | 0.0 | 1.6 | 0.03 | 0.48 | 0.38 | 93 | 1007.7 |
| 20260506171341 | 12 | 229 | 0.0 | 0.0 | 0.03 | 0.48 | 0.36 | 93 | 1007.7 |
| 20260506171331 | 12 | 229 | 0.0 | 0.0 | 0.03 | 0.48 | 0.38 | 93 | 1007.6 |
| 20260506170909 | 12 | 229 | 0.0 | 0.0 | 0.03 | 0.48 | 0.38 | 93 | 1007.7 |
| 20260506165402 | 12 | 306 | 0.0 | 0.0 | 0.03 | 0.48 | 0.36 | 93 | 1007.6 |
| 20260506164901 | 12 | 306 | 0.0 | 4.8 | 0.03 | 0.48 | 0.36 | 93 | 1007.7 |
| 20260506164406 | 12 | 306 | 0.0 | 4.8 | 0.03 | 0.48 | 0.36 | 93 | 1007.7 |
| 20260506163902 | 12 | 306 | 0.0 | 4.8 | 0.03 | 0.48 | 0.36 | 93 | 1007.6 |
| 20260506163402 | 12 | 313 | 0.0 | 4.8 | 0.03 | 0.48 | 0.36 | 93 | 1007.7 |
| 20260506162902 | 12 | 51 | 0.0 | 1.6 | 0.00 | 0.46 | 0.36 | 93 | 1007.7 |
| 20260506162402 | 12 | 185 | 0.0 | 0.0 | 0.00 | 0.46 | 0.36 | 93 | 1007.7 |
| 20260506162312 | 12 | 254 | 0.0 | 1.6 | 0.03 | 0.46 | 0.36 | 93 | 1007.7 |
| 20260506161403 | 12 | 210 | 0.0 | 1.6 | 0.03 | 0.46 | 0.36 | 93 | 1007.7 |
| 20260506160904 | 12 | 313 | 0.0 | 3.2 | 0.03 | 0.46 | 0.36 | 93 | 1007.7 |
| 20260506160403 | 12 | 198 | 0.0 | 3.2 | 0.05 | 0.46 | 0.36 | 93 | 1007.7 |
| 20260506155903 | 12 | 126 | 0.0 | 4.8 | 0.05 | 0.46 | 0.33 | 93 | 1007.6 |
| 20260506155402 | 12 | 307 | 0.0 | 4.8 | 0.05 | 0.46 | 0.33 | 93 | 1007.6 |
| 20260506154905 | 12 | 325 | 0.0 | 3.2 | 0.05 | 0.46 | 0.33 | 93 | 1007.6 |
| 20260506154402 | 12 | 67 | 0.0 | 1.6 | 0.05 | 0.46 | 0.33 | 93 | 1007.6 |
| 20260506153903 | 12 | 111 | 0.0 | 1.6 | 0.05 | 0.46 | 0.33 | 94 | 1007.5 |
| 20260506153406 | 12 | 13 | 0.0 | 1.6 | 0.10 | 0.46 | 0.33 | 94 | 1007.5 |
| 20260506152902 | 12 | 355 | 0.0 | 1.6 | 0.13 | 0.46 | 0.33 | 94 | 1007.4 |
| 20260506152401 | 12 | 315 | 0.0 | 1.6 | 0.15 | 0.46 | 0.33 | 94 | 1007.3 |
| 20260506151901 | 12 | 17 | 0.0 | 6.4 | 0.23 | 0.43 | 0.33 | 94 | 1007.3 |
| 20260506151411 | 12 | 321 | 0.0 | 6.4 | 0.25 | 0.43 | 0.33 | 93 | 1007.3 |
| 20260506151402 | 12 | 322 | 0.0 | 6.4 | 0.25 | 0.43 | 0.33 | 94 | 1007.3 |
| 20260506150403 | 12 | 323 | 1.6 | 8.0 | 0.25 | 0.43 | 0.33 | 93 | 1007.3 |
| 20260506150140 | 12 | 18 | 0.0 | 6.4 | 0.25 | 0.43 | 0.05 | 93 | 1007.3 |
| 20260506145949 | 12 | 24 | 1.6 | 8.0 | 0.28 | 0.43 | 0.05 | 93 | 1007.3 |
| 20260506144903 | 12 | 308 | 0.0 | 6.4 | 0.28 | 0.43 | 0.05 | 93 | 1007.3 |
| 20260506144402 | 12 | 329 | 0.0 | 6.4 | 0.28 | 0.43 | 0.05 | 93 | 1007.3 |
| 20260506143902 | 12 | 63 | 0.0 | 1.6 | 0.28 | 0.43 | 0.05 | 93 | 1007.4 |
| 20260506143404 | 12 | 90 | 0.0 | 1.6 | 0.23 | 0.38 | 0.05 | 93 | 1007.3 |
| 20260506142901 | 12 | 97 | 0.0 | 1.6 | 0.23 | 0.36 | 0.05 | 92 | 1007.4 |
| 20260506142403 | 12 | 347 | 0.0 | 8.0 | 0.18 | 0.33 | 0.05 | 91 | 1007.5 |
| 20260506141902 | 12 | 348 | 0.0 | 8.0 | 0.10 | 0.23 | 0.05 | 91 | 1007.6 |
| 20260506141402 | 12 | 77 | 0.0 | 8.0 | 0.05 | 0.23 | 0.05 | 90 | 1007.6 |
| 20260506141348 | 12 | 184 | 1.6 | 11.3 | 0.05 | 0.23 | 0.05 | 89 | 1007.5 |
| 20260506140848 | 13 | 181 | 1.6 | 11.3 | 0.05 | 0.23 | 0.05 | 88 | 1007.3 |
| 20260506140354 | 13 | 178 | 0.0 | 11.3 | 0.03 | 0.20 | 0.03 | 87 | 1007.0 |
| 20260506135404 | 14 | 144 | 1.6 | 11.3 | 0.03 | 0.23 | 0.03 | 88 | 1006.9 |
| 20260506134901 | 14 | 60 | 1.6 | 9.7 | 0.00 | 0.23 | 0.03 | 86 | 1006.5 |
| 20260506134400 | 15 | 28 | 0.0 | 9.7 | 0.00 | 0.25 | 0.03 | 83 | 1006.5 |
| 20260506133859 | 15 | 281 | 0.0 | 3.2 | 0.00 | 0.28 | 0.03 | 82 | 1006.4 |
| 20260506133359 | 15 | 329 | 0.0 | 4.8 | 0.00 | 0.33 | 0.03 | 84 | 1006.4 |
| 20260506132906 | 15 | 5 | 0.0 | 4.8 | 0.00 | 0.33 | 0.03 | 82 | 1006.3 |
| 20260506132355 | 15 | 308 | 0.0 | 9.7 | 0.00 | 0.36 | 0.03 | 82 | 1006.3 |
| 20260506131849 | 16 | 327 | 0.0 | 9.7 | 0.00 | 0.38 | 0.03 | 81 | 1006.4 |
| 20260506131345 | 16 | 22 | 0.0 | 9.7 | 0.00 | 0.38 | 0.03 | 80 | 1006.3 |
| 20260506131310 | 16 | 348 | 0.0 | 9.7 | 0.00 | 0.41 | 0.03 | 77 | 1006.2 |
| 20260506130346 | 17 | 355 | 1.6 | 11.3 | 0.00 | 0.41 | 0.03 | 73 | 1006.1 |
| 20260506130318 | 17 | 337 | 1.6 | 11.3 | 0.00 | 0.43 | 0.03 | 70 | 1006.0 |
| 20260506125747 | 17 | 350 | 0.0 | 6.4 | 0.00 | 0.43 | 0.03 | 71 | 1005.9 |
| 20260506124844 | 17 | 351 | 0.0 | 6.4 | 0.00 | 0.48 | 0.03 | 66 | 1005.8 |
| 20260506124343 | 17 | 242 | 0.0 | 1.6 | 0.00 | 0.51 | 0.03 | 64 | 1005.8 |
| 20260506123841 | 17 | 224 | 0.0 | 1.6 | 0.00 | 0.53 | 0.03 | 67 | 1005.8 |
| 20260506123343 | 18 | 0 | 0.0 | 6.4 | 0.00 | 0.61 | 0.03 | 63 | 1005.9 |
| 20260506122838 | 18 | 355 | 1.6 | 8.0 | 0.00 | 0.74 | 0.03 | 66 | 1005.9 |
| 20260506122341 | 18 | 355 | 1.6 | 8.0 | 0.00 | 0.76 | 0.03 | 62 | 1005.9 |
| 20260506121843 | 18 | 312 | 1.6 | 4.8 | 0.00 | 0.76 | 0.03 | 62 | 1005.9 |
| 20260506121800 | 18 | 0 | 0.0 | 4.8 | 0.00 | 0.76 | 0.03 | 64 | 1005.9 |
| 20260506120851 | 17 | 344 | 0.0 | 3.2 | 0.00 | 0.76 | 0.03 | 65 | 1005.9 |
| 20260506120752 | 17 | 328 | 0.0 | 3.2 | 0.00 | 0.76 | 0.03 | 68 | 1005.9 |
| 20260506120733 | 17 | 338 | 0.0 | 6.4 | 0.00 | 0.76 | 0.03 | 67 | 1006.1 |
| 20260506120232 | 17 | 340 | 0.0 | 6.4 | 0.00 | 0.76 | 0.03 | 65 | 1006.0 |
| 20260506120014 | 17 | 349 | 0.0 | 3.2 | 0.00 | 0.76 | 0.03 | 67 | 1006.0 |
| 20260506114720 | 17 | 338 | 0.0 | 6.4 | 0.00 | 0.76 | 0.03 | 65 | 1006.1 |
| 20260506113921 | 17 | 342 | 0.0 | 3.2 | 0.00 | 0.76 | 0.03 | 65 | 1006.0 |
| 20260506113836 | 17 | 0 | 0.0 | 6.4 | 0.00 | 0.76 | 0.03 | 68 | 1006.0 |
| 20260506112836 | 17 | 344 | 0.0 | 1.6 | 0.00 | 0.76 | 0.03 | 67 | 1006.0 |
| 20260506112337 | 17 | 346 | 0.0 | 1.6 | 0.00 | 0.76 | 0.03 | 65 | 1006.1 |
| 20260506111829 | 17 | 355 | 0.0 | 3.2 | 0.00 | 0.76 | 0.03 | 67 | 1006.1 |
| 20260506111326 | 17 | 341 | 0.0 | 6.4 | 0.00 | 0.76 | 0.03 | 69 | 1006.2 |
| 20260506111317 | 17 | 341 | 1.6 | 6.4 | 0.00 | 0.76 | 0.03 | 65 | 1006.3 |
| 20260506110322 | 17 | 62 | 0.0 | 6.4 | 0.00 | 0.76 | 0.03 | 65 | 1006.4 |
| 20260506105822 | 17 | 69 | 0.0 | 1.6 | 0.00 | 0.76 | 0.03 | 65 | 1006.4 |
| 20260506105347 | 17 | 355 | 0.0 | 1.6 | 0.00 | 0.76 | 0.03 | 67 | 1006.5 |
| 20260506105321 | 18 | 355 | 0.0 | 1.6 | 0.00 | 0.76 | 0.03 | 69 | 1006.5 |
| 20260506104323 | 17 | 0 | 0.0 | 1.6 | 0.00 | 0.76 | 0.03 | 67 | 1006.4 |
| 20260506103824 | 17 | 347 | 0.0 | 1.6 | 0.00 | 0.76 | 0.03 | 69 | 1006.5 |
| 20260506103332 | 16 | 350 | 1.6 | 6.4 | 0.00 | 0.76 | 0.03 | 72 | 1006.6 |
| 20260506103323 | 17 | 350 | 0.0 | 6.4 | 0.00 | 0.76 | 0.03 | 73 | 1006.5 |
| 20260506102317 | 17 | 349 | 0.0 | 6.4 | 0.00 | 0.76 | 0.03 | 70 | 1006.6 |
| 20260506101818 | 17 | 85 | 0.0 | 4.8 | 0.00 | 0.76 | 0.03 | 74 | 1006.6 |
| 20260506101716 | 17 | 90 | 0.0 | 1.6 | 0.00 | 0.76 | 0.03 | 71 | 1006.9 |
| 20260506100819 | 17 | 82 | 0.0 | 1.6 | 0.00 | 0.76 | 0.03 | 73 | 1006.9 |
| 20260506100336 | 17 | 5 | 0.0 | 3.2 | 0.00 | 0.76 | 0.03 | 73 | 1006.7 |
| 20260506100323 | 17 | 84 | 0.0 | 1.6 | 0.00 | 0.76 | 0.03 | 75 | 1006.7 |
| 20260506095315 | 17 | 5 | 0.0 | 3.2 | 0.00 | 0.76 | 0.03 | 72 | 1006.7 |
| 20260506095220 | 18 | 0 | 0.0 | 6.4 | 0.00 | 0.76 | 0.03 | 70 | 1006.9 |
| 20260506094953 | 17 | 5 | 1.6 | 8.0 | 0.00 | 0.76 | 0.03 | 73 | 1006.9 |
| 20260506094508 | 17 | 306 | 1.6 | 8.0 | 0.00 | 0.76 | 0.03 | 69 | 1007.0 |
| 20260506093314 | 18 | 0 | 0.0 | 6.4 | 0.00 | 0.76 | 0.03 | 72 | 1006.9 |
| 20260506092814 | 17 | 0 | 0.0 | 6.4 | 0.00 | 0.76 | 0.03 | 75 | 1006.9 |
| 20260506092315 | 17 | 0 | 0.0 | 6.4 | 0.00 | 0.76 | 0.03 | 73 | 1006.9 |
| 20260506091815 | 17 | 167 | 0.0 | 4.8 | 0.00 | 0.76 | 0.03 | 73 | 1006.9 |
| 20260506091316 | 17 | 306 | 0.0 | 4.8 | 0.00 | 0.76 | 0.03 | 72 | 1006.9 |
| 20260506090815 | 16 | 175 | 0.0 | 4.8 | 0.00 | 0.76 | 0.03 | 77 | 1006.7 |
| 20260506090308 | 16 | 313 | 0.0 | 4.8 | 0.00 | 0.76 | 0.03 | 75 | 1006.7 |
| 20260506085814 | 16 | 355 | 0.0 | 6.4 | 0.00 | 0.76 | 0.03 | 76 | 1006.7 |
| 20260506085311 | 17 | 351 | 0.0 | 6.4 | 0.00 | 0.76 | 0.03 | 75 | 1006.9 |
| 20260506084813 | 16 | 49 | 0.0 | 1.6 | 0.00 | 0.76 | 0.03 | 79 | 1006.9 |
| 20260506084305 | 16 | 49 | 0.0 | 1.6 | 0.00 | 0.76 | 0.03 | 79 | 1007.0 |
| 20260506083803 | 16 | 49 | 0.0 | 4.8 | 0.00 | 0.76 | 0.03 | 78 | 1007.0 |
| 20260506083303 | 16 | 49 | 0.0 | 4.8 | 0.00 | 0.76 | 0.03 | 78 | 1006.9 |
| 20260506082802 | 16 | 9 | 0.0 | 3.2 | 0.00 | 0.76 | 0.03 | 78 | 1006.9 |
| 20260506082304 | 16 | 103 | 0.0 | 3.2 | 0.00 | 0.76 | 0.03 | 80 | 1007.0 |
| 20260506082138 | 15 | 339 | 0.0 | 4.8 | 0.00 | 0.76 | 0.03 | 79 | 1007.1 |
| 20260506082133 | 16 | 149 | 0.0 | 4.8 | 0.00 | 0.76 | 0.03 | 80 | 1007.1 |
| 20260506080913 | 15 | 193 | 0.0 | 4.8 | 0.00 | 0.76 | 0.03 | 81 | 1007.1 |
| 20260506080305 | 15 | 193 | 0.0 | 4.8 | 0.00 | 0.76 | 0.03 | 80 | 1007.1 |
| 20260506073259 | 14 | 176 | 0.0 | 1.6 | 0.00 | 0.76 | 0.03 | 87 | 1007.1 |
| 20260506072752 | 14 | 186 | 0.0 | 3.2 | 0.00 | 0.76 | 0.03 | 88 | 1007.0 |
| 20260506072245 | 14 | 186 | 0.0 | 3.2 | 0.00 | 0.76 | 0.03 | 87 | 1007.0 |
| 20260506071841 | 13 | 195 | 0.0 | 0.0 | 0.00 | 0.76 | 0.03 | 87 | 1006.9 |
| 20260506071801 | 13 | 195 | 0.0 | 0.0 | 0.00 | 0.76 | 0.03 | 87 | 1006.9 |
| 20260506070737 | 13 | 195 | 0.0 | 0.0 | 0.00 | 0.76 | 0.03 | 86 | 1006.9 |
| 20260506070235 | 13 | 195 | 0.0 | 0.0 | 0.00 | 0.76 | 0.03 | 86 | 1006.9 |
| 20260506062232 | 12 | 195 | 0.0 | 0.0 | 0.00 | 0.76 | 0.03 | 90 | 1007.1 |
| 20260506062135 | 11 | 197 | 0.0 | 0.0 | 0.00 | 0.76 | 0.03 | 95 | 1007.1 |
| 20260506062125 | 11 | 193 | 0.0 | 0.0 | 0.00 | 0.76 | 0.03 | 96 | 1007.1 |
| 20260506061914 | 12 | 195 | 0.0 | 0.0 | 0.00 | 0.76 | 0.03 | 93 | 1007.2 |
| 20260506061344 | 11 | 197 | 0.0 | 0.0 | 0.00 | 0.76 | 0.03 | 94 | 1007.1 |
| 20260506060740 | 11 | 197 | 0.0 | 0.0 | 0.00 | 0.76 | 0.03 | 95 | 1007.1 |
| 20260506060452 | 11 | 197 | 0.0 | 0.0 | 0.00 | 0.76 | 0.03 | 95 | 1007.1 |
| 20260506060204 | 11 | 197 | 0.0 | 0.0 | 0.00 | 0.76 | 0.03 | 96 | 1007.1 |
| 20260506050207 | 9 | 193 | 0.0 | 0.0 | 0.00 | 0.76 | 0.03 | 97 | 1007.2 |
| 20260506044701 | 9 | 193 | 0.0 | 0.0 | 0.00 | 0.76 | 0.03 | 96 | 1007.2 |
| 20260506044202 | 9 | 193 | 0.0 | 0.0 | 0.00 | 0.76 | 0.03 | 96 | 1007.2 |
| 20260506044131 | 9 | 193 | 0.0 | 0.0 | 0.00 | 0.76 | 0.03 | 97 | 1007.1 |
| 20260506043157 | 9 | 193 | 0.0 | 0.0 | 0.00 | 0.76 | 0.03 | 97 | 1007.2 |
| 20260506042705 | 9 | 193 | 0.0 | 0.0 | 0.03 | 0.76 | 0.03 | 97 | 1007.2 |
| 20260506042156 | 9 | 193 | 0.0 | 0.0 | 0.03 | 0.76 | 0.03 | 96 | 1007.2 |
| 20260506041659 | 9 | 193 | 0.0 | 0.0 | 0.03 | 0.76 | 0.03 | 97 | 1007.2 |
| 20260506041635 | 9 | 193 | 0.0 | 0.0 | 0.03 | 0.76 | 0.03 | 97 | 1007.2 |
| 20260506040657 | 9 | 193 | 0.0 | 0.0 | 0.03 | 0.76 | 0.03 | 97 | 1007.4 |
| 20260506040157 | 9 | 193 | 0.0 | 0.0 | 0.03 | 0.76 | 0.03 | 96 | 1007.3 |
| 20260506035655 | 9 | 193 | 0.0 | 0.0 | 0.03 | 0.76 | 0.00 | 97 | 1007.3 |
| 20260506035555 | 9 | 193 | 0.0 | 0.0 | 0.03 | 0.76 | 0.00 | 96 | 1007.5 |
| 20260506035347 | 9 | 193 | 0.0 | 0.0 | 0.03 | 0.76 | 0.00 | 97 | 1007.4 |
| 20260506034155 | 9 | 193 | 0.0 | 0.0 | 0.03 | 0.76 | 0.00 | 96 | 1007.5 |
| 20260506033653 | 9 | 193 | 0.0 | 0.0 | 0.03 | 0.76 | 0.00 | 96 | 1007.4 |
| 20260506033151 | 9 | 193 | 0.0 | 0.0 | 0.03 | 0.76 | 0.00 | 96 | 1007.4 |
| 20260506032652 | 9 | 193 | 0.0 | 0.0 | 0.00 | 0.74 | 0.00 | 96 | 1007.4 |
| 20260506032151 | 10 | 193 | 0.0 | 0.0 | 0.00 | 0.74 | 0.00 | 96 | 1007.3 |
| 20260506031652 | 10 | 193 | 0.0 | 0.0 | 0.00 | 0.74 | 0.00 | 96 | 1007.3 |
| 20260506031518 | 10 | 193 | 0.0 | 0.0 | 0.00 | 0.74 | 0.00 | 96 | 1007.3 |
| 20260506031334 | 10 | 193 | 0.0 | 0.0 | 0.00 | 0.74 | 0.00 | 96 | 1007.3 |
| 20260506030205 | 10 | 193 | 0.0 | 0.0 | 0.00 | 0.74 | 0.00 | 96 | 1007.2 |
| 20260506025649 | 10 | 193 | 0.0 | 0.0 | 0.00 | 0.74 | 0.00 | 96 | 1007.3 |
| 20260506025148 | 10 | 193 | 0.0 | 0.0 | 0.00 | 0.74 | 0.00 | 96 | 1007.3 |
| 20260506024646 | 10 | 193 | 0.0 | 0.0 | 0.00 | 0.74 | 0.00 | 96 | 1007.5 |
| 20260506024149 | 10 | 193 | 0.0 | 0.0 | 0.00 | 0.74 | 0.00 | 96 | 1007.5 |
| 20260506023646 | 10 | 193 | 0.0 | 0.0 | 0.00 | 0.74 | 0.00 | 96 | 1007.7 |
| 20260506023154 | 10 | 193 | 0.0 | 0.0 | 0.00 | 0.74 | 0.00 | 96 | 1007.8 |
| 20260506022649 | 10 | 193 | 0.0 | 0.0 | 0.00 | 0.74 | 0.00 | 96 | 1007.9 |
| 20260506022146 | 10 | 193 | 0.0 | 0.0 | 0.00 | 0.74 | 0.00 | 96 | 1007.9 |
| 20260506021714 | 10 | 193 | 0.0 | 0.0 | 0.00 | 0.74 | 0.00 | 96 | 1007.8 |
| 20260506021656 | 10 | 193 | 0.0 | 0.0 | 0.00 | 0.74 | 0.00 | 96 | 1007.9 |
| 20260506020643 | 10 | 193 | 0.0 | 0.0 | 0.00 | 0.74 | 0.00 | 96 | 1007.9 |
| 20260506020142 | 10 | 193 | 0.0 | 0.0 | 0.00 | 0.74 | 0.00 | 96 | 1008.0 |
| 20260506015642 | 10 | 193 | 0.0 | 0.0 | 0.00 | 0.74 | 0.00 | 96 | 1007.9 |
| 20260506015150 | 10 | 193 | 0.0 | 0.0 | 0.00 | 0.74 | 0.00 | 96 | 1007.9 |
| 20260506014639 | 10 | 193 | 0.0 | 0.0 | 0.00 | 0.74 | 0.00 | 96 | 1007.9 |
| 20260506014138 | 10 | 193 | 0.0 | 0.0 | 0.00 | 0.74 | 0.00 | 96 | 1007.9 |
| 20260506013636 | 10 | 193 | 0.0 | 0.0 | 0.00 | 0.74 | 0.00 | 96 | 1007.9 |
| 20260506013134 | 10 | 193 | 0.0 | 0.0 | 0.00 | 0.74 | 0.00 | 96 | 1007.9 |
| 20260506012637 | 10 | 193 | 0.0 | 0.0 | 0.00 | 0.74 | 0.00 | 96 | 1007.9 |
| 20260506012245 | 10 | 193 | 0.0 | 0.0 | 0.00 | 0.74 | 0.00 | 95 | 1007.8 |
| 20260506012144 | 10 | 193 | 0.0 | 0.0 | 0.00 | 0.74 | 0.00 | 95 | 1007.9 |
| 20260506011137 | 10 | 193 | 0.0 | 0.0 | 0.00 | 0.74 | 0.00 | 95 | 1007.8 |
| 20260506010849 | 10 | 193 | 0.0 | 0.0 | 0.00 | 0.74 | 0.00 | 95 | 1007.9 |
| 20260506010729 | 10 | 193 | 0.0 | 0.0 | 0.00 | 0.74 | 0.00 | 95 | 1007.8 |
| 20260506010224 | 10 | 193 | 0.0 | 0.0 | 0.00 | 0.74 | 0.00 | 95 | 1007.9 |
| 20260506005117 | 10 | 193 | 0.0 | 0.0 | 0.00 | 0.74 | 0.00 | 95 | 1007.9 |
| 20260506004642 | 11 | 193 | 0.0 | 0.0 | 0.00 | 0.74 | 0.00 | 94 | 1008.0 |
| 20260506004622 | 10 | 193 | 0.0 | 0.0 | 0.00 | 0.74 | 0.00 | 94 | 1007.9 |
| 20260506003653 | 11 | 193 | 0.0 | 0.0 | 0.00 | 0.74 | 0.00 | 93 | 1008.1 |
| 20260506003619 | 11 | 193 | 0.0 | 0.0 | 0.00 | 0.74 | 0.00 | 94 | 1008.1 |
| 20260506002610 | 11 | 193 | 0.0 | 1.6 | 0.00 | 0.74 | 0.00 | 92 | 1008.1 |
| 20260506002118 | 11 | 193 | 0.0 | 1.6 | 0.00 | 0.74 | 0.00 | 92 | 1008.1 |
| 20260506001619 | 11 | 196 | 0.0 | 1.6 | 0.00 | 0.74 | 0.00 | 92 | 1008.2 |
| 20260506001118 | 12 | 196 | 0.0 | 1.6 | 0.00 | 0.74 | 0.00 | 91 | 1008.3 |
| 20260506000606 | 12 | 196 | 0.0 | 0.0 | 0.00 | 0.74 | 0.00 | 91 | 1008.4 |
| 20260506000115 | 12 | 196 | 0.0 | 1.6 | 0.00 | 0.74 | 0.00 | 91 | 1008.4 |
| 20260505235608 | 12 | 196 | 0.0 | 1.6 | 0.00 | 0.74 | 0.00 | 91 | 1008.5 |
| 20260505235110 | 12 | 196 | 0.0 | 1.6 | 0.00 | 0.74 | 0.00 | 91 | 1008.5 |
| 20260505234604 | 12 | 186 | 0.0 | 1.6 | 0.00 | 0.74 | 0.00 | 92 | 1008.6 |
| 20260505234104 | 12 | 187 | 0.0 | 0.0 | 0.00 | 0.74 | 0.00 | 92 | 1008.6 |
| 20260505233610 | 12 | 189 | 0.0 | 1.6 | 0.00 | 0.74 | 0.00 | 92 | 1008.6 |
| 20260505233113 | 12 | 189 | 0.0 | 3.2 | 0.00 | 0.74 | 0.00 | 92 | 1008.6 |
| 20260505232607 | 12 | 196 | 0.0 | 3.2 | 0.00 | 0.74 | 0.00 | 92 | 1008.6 |
| 20260505232111 | 12 | 192 | 0.0 | 1.6 | 0.00 | 0.74 | 0.00 | 93 | 1008.6 |
| 20260505231555 | 12 | 192 | 0.0 | 0.0 | 0.00 | 0.74 | 0.00 | 93 | 1008.6 |
| 20260505231058 | 12 | 192 | 0.0 | 0.0 | 0.00 | 0.74 | 0.00 | 93 | 1008.6 |
| 20260505230607 | 12 | 192 | 0.0 | 0.0 | 0.00 | 0.74 | 0.00 | 93 | 1008.6 |
| 20260505230052 | 12 | 192 | 0.0 | 3.2 | 0.00 | 0.74 | 0.00 | 92 | 1008.7 |
| 20260505225549 | 12 | 192 | 0.0 | 3.2 | 0.00 | 0.74 | 0.00 | 93 | 1008.7 |
| 20260505225122 | 12 | 192 | 0.0 | 1.6 | 0.00 | 0.74 | 0.00 | 93 | 1008.7 |
| 20260505225116 | 12 | 192 | 0.0 | 1.6 | 0.00 | 0.74 | 0.00 | 93 | 1008.6 |
| 20260505225043 | 12 | 192 | 0.0 | 0.0 | 0.00 | 0.74 | 0.00 | 93 | 1008.6 |
| 20260505223808 | 12 | 192 | 0.0 | 1.6 | 0.00 | 0.74 | 0.00 | 94 | 1008.6 |
| 20260505223803 | 11 | 192 | 0.0 | 0.0 | 0.00 | 0.74 | 0.00 | 94 | 1008.6 |
| 20260505223757 | 11 | 192 | 0.0 | 0.0 | 0.00 | 0.74 | 0.00 | 94 | 1008.6 |
| 20260505223615 | 12 | 192 | 0.0 | 1.6 | 0.00 | 0.74 | 0.00 | 94 | 1008.6 |
| 20260505221637 | 12 | 192 | 0.0 | 0.0 | 0.00 | 0.74 | 0.00 | 94 | 1008.5 |
| 20260505221556 | 11 | 192 | 0.0 | 0.0 | 0.00 | 0.74 | 0.00 | 94 | 1008.5 |
| 20260505220806 | 12 | 192 | 0.0 | 0.0 | 0.00 | 0.74 | 0.00 | 93 | 1008.6 |
| 20260505220520 | 12 | 192 | 0.0 | 0.0 | 0.00 | 0.74 | 0.74 | 92 | 1008.6 |
| 20260505220254 | 12 | 192 | 0.0 | 0.0 | 0.00 | 0.74 | 0.00 | 92 | 1008.6 |
| 20260505215643 | 12 | 192 | 0.0 | 0.0 | 0.00 | 0.74 | 0.74 | 92 | 1008.6 |
| 20260505214925 | 12 | 192 | 0.0 | 0.0 | 0.00 | 0.74 | 0.74 | 93 | 1008.7 |
| 20260505214629 | 12 | 192 | 0.0 | 0.0 | 0.00 | 0.74 | 0.74 | 93 | 1008.6 |
| 20260505213639 | 12 | 192 | 0.0 | 0.0 | 0.00 | 0.74 | 0.74 | 93 | 1008.7 |
| 20260505213539 | 12 | 192 | 0.0 | 0.0 | 0.00 | 0.74 | 0.74 | 93 | 1008.7 |
| 20260505213132 | 12 | 192 | 0.0 | 0.0 | 0.00 | 0.74 | 0.74 | 93 | 1008.7 |
| 20260505212423 | 12 | 192 | 0.0 | 0.0 | 0.00 | 0.74 | 0.74 | 93 | 1008.5 |
| 20260505212414 | 12 | 192 | 0.0 | 0.0 | 0.00 | 0.74 | 0.74 | 93 | 1008.7 |
| 20260505212333 | 12 | 192 | 0.0 | 0.0 | 0.00 | 0.74 | 0.74 | 94 | 1008.5 |
| 20260505212323 | 12 | 192 | 0.0 | 0.0 | 0.00 | 0.74 | 0.74 | 93 | 1008.5 |
| 20260505212058 | 12 | 192 | 0.0 | 0.0 | 0.00 | 0.74 | 0.74 | 92 | 1008.7 |
| 20260505211655 | 12 | 192 | 0.0 | 0.0 | 0.00 | 0.74 | 0.74 | 93 | 1008.7 |
| 20260505211344 | 12 | 192 | 0.0 | 0.0 | 0.00 | 0.74 | 0.74 | 93 | 1008.7 |
| 20260505210059 | 12 | 192 | 0.0 | 0.0 | 0.00 | 0.74 | 0.74 | 94 | 1008.7 |
| 20260505205558 | 12 | 192 | 0.0 | 0.0 | 0.00 | 0.74 | 0.74 | 94 | 1008.7 |
| 20260505205156 | 12 | 192 | 0.0 | 0.0 | 0.00 | 0.74 | 0.74 | 94 | 1008.6 |